Peotone Weather

Nearby METAR Reports

 

KIGQ - Lansing, Illinois, USA
Distance from station: NE 19mi, 30km
Updated: Sat, 18-Aug-2018 9:15pm CDT
Partly cloudy
Partly cloudy
 Wind from calm
Wind: Calm
Temperature: 72°F , 22°C
Dew Point: 66°F , 19°C
Humidity: 83%
Barometer: 29.99 inHg , 1015.6 hPa
Clouds: Partly cloudy
Visibility: 10 miles , 16 km
Cloud details: Partly cloudy 1600 ft
2018/08/19 02:15 KIGQ 190215Z AUTO 00000KT 10SM SCT016 22/19 A2999 RMK AO2 T02200190
KIKK - Kankakee, Illinois, USA
Distance from station: S 19mi, 30km
Updated: Sat, 18-Aug-2018 9:15pm CDT
Clear
Clear
 Wind from calm
Wind: Calm
Temperature: 68°F , 20°C
Dew Point: 66°F , 19°C
Humidity: 94%
Barometer: 30.01 inHg , 1016.3 hPa
Clouds: Clear
Visibility: 10 miles , 16 km
2018/08/19 02:15 KIKK 190215Z AUTO 00000KT 10SM CLR 20/19 A3001 RMK AO2 T02030192
 
KSJC - Joliet, Illinois, USA
Distance from station: WNW 24mi, 38km
Updated: Sat, 18-Aug-2018 8:53pm CDT
Mostly cloudy
Mostly cloudy
 Wind from NW
Wind: NW 15 mph , 24 km/h
Temperature: 77°F , 25°C
Dew Point: 54°F , 12°C
Humidity: 44%
Barometer: 29.96 inHg , 1014.6 hPa
Clouds: Mostly cloudy
Visibility: 10 miles , 16 km
Cloud details: Few Clouds 1000 ft
Partly cloudy 2400 ft
Mostly cloudy 3100 ft
2018/08/19 01:53 KSJC 190153Z 32013KT 10SM FEW010 SCT024 BKN031 25/12 A2996 RMK AO2 SLP144 FU FEW010 FU SCT024 FU BKN031 T02500122
KLOT - Romeoville, Illinois, USA
Distance from station: NW 26mi, 41km
Updated: Sat, 18-Aug-2018 9:15pm CDT
Clear
Clear
 Wind from NE
Wind: NE 3 mph , 6 km/h
Temperature: 70°F , 21°C
Dew Point: 66°F , 19°C
Humidity: 88%
Barometer: 30.00 inHg , 1015.9 hPa
Clouds: Clear
Visibility: 10 miles , 16 km
2018/08/19 02:15 KLOT 190215Z AUTO 05003KT 10SM CLR 21/19 A3000 RMK AO2 T02090185
 
KMDW - Midway Airport Chicago, Illinois, USA
Distance from station: N 31mi, 50km
Updated: Sat, 18-Aug-2018 8:53pm CDT
Few Clouds
Few Clouds
 Wind from NNE
Wind: NNE 7 mph , 11 km/h
Temperature: 73°F , 23°C
Dew Point: 68°F , 20°C
Humidity: 83%
Barometer: 29.98 inHg , 1015.2 hPa
Clouds: Few Clouds
Visibility: 10 miles , 16 km
Cloud details: Few Clouds 3000 ft
2018/08/19 01:53 KMDW 190153Z 03006KT 10SM FEW030 23/20 A2998 RMK AO2 SLP143 T02330200
KC09 - Morris, Illinois, USA
Distance from station: W 34mi, 54km
Updated: Sat, 18-Aug-2018 9:15pm CDT
Clear
Clear
 Wind from calm
Wind: Calm
Temperature: 70°F , 21°C
Dew Point: 66°F , 19°C
Humidity: 88%
Barometer: 29.98 inHg , 1015.2 hPa
Clouds: Clear
Visibility: 10 miles , 16 km
2018/08/19 02:15 KC09 190215Z AUTO 00000KT 10SM CLR 21/19 A2998 RMK AO2 T02060193

Metar display script from Saratoga-Weather.org